createdAt,value
2018-08-06T00:00:57.743Z,23.33
2018-08-06T00:01:57.730Z,23.29
2018-08-06T00:02:57.733Z,23.29
2018-08-06T00:03:57.821Z,23.29
2018-08-06T00:04:57.762Z,23.23
2018-08-06T00:05:57.758Z,23.29
2018-08-06T00:06:57.812Z,23.28
2018-08-06T00:07:57.850Z,23.28
2018-08-06T00:08:57.838Z,23.21
2018-08-06T00:09:57.857Z,23.21
2018-08-06T00:10:57.878Z,23.26
2018-08-06T00:11:57.864Z,23.29
2018-08-06T00:12:57.857Z,23.32
2018-08-06T00:13:57.881Z,23.32
2018-08-06T00:14:57.913Z,23.25
2018-08-06T00:15:57.982Z,23.23
2018-08-06T00:16:57.930Z,23.28
2018-08-06T00:17:57.940Z,23.28
2018-08-06T00:18:57.937Z,23.25
2018-08-06T00:19:57.940Z,23.25
2018-08-06T00:20:57.983Z,23.26
2018-08-06T00:21:58.044Z,23.25
2018-08-06T00:22:58.043Z,23.28
2018-08-06T00:23:58.010Z,23.32
2018-08-06T00:24:58.051Z,23.18
2018-08-06T00:25:58.037Z,23.25
2018-08-06T00:26:58.124Z,23.23
2018-08-06T00:27:58.069Z,23.23
2018-08-06T00:28:58.070Z,23.21
2018-08-06T00:29:58.093Z,23.21
2018-08-06T00:30:58.118Z,23.18
2018-08-06T00:31:58.137Z,23.10
2018-08-06T00:32:58.123Z,23.11
2018-08-06T00:33:58.155Z,23.13
2018-08-06T00:34:58.135Z,23.07
2018-08-06T00:35:58.162Z,23.08
2018-08-06T00:36:58.236Z,23.06
2018-08-06T00:37:58.183Z,23.11
2018-08-06T00:38:58.196Z,23.02
2018-08-06T00:39:58.240Z,23.02
2018-08-06T00:40:58.261Z,23.10
2018-08-06T00:41:58.259Z,23.06
2018-08-06T00:42:58.245Z,23.08
2018-08-06T00:43:58.260Z,23.04
2018-08-06T00:44:58.266Z,23.04
2018-08-06T00:45:58.273Z,23.02
2018-08-06T00:46:58.370Z,22.99
2018-08-06T00:47:58.698Z,22.96
2018-08-06T00:48:58.372Z,23.02
2018-08-06T00:49:58.357Z,22.96
2018-08-06T00:50:58.358Z,22.98
2018-08-06T00:51:58.454Z,23.01
2018-08-06T00:52:58.387Z,23.01
2018-08-06T00:53:58.416Z,23.01
2018-08-06T00:54:58.425Z,22.93
2018-08-06T00:55:58.437Z,22.93
2018-08-06T00:56:58.434Z,22.91
2018-08-06T00:57:58.480Z,22.88
2018-08-06T00:58:58.465Z,22.95
2018-08-06T00:59:58.527Z,22.92
2018-08-06T01:00:58.514Z,22.93
2018-08-06T01:01:58.478Z,22.81
2018-08-06T01:02:58.511Z,22.93
2018-08-06T01:03:58.522Z,22.74
2018-08-06T01:04:58.542Z,22.81
2018-08-06T01:05:58.583Z,22.83
2018-08-06T01:06:58.592Z,22.76
2018-08-06T01:07:58.532Z,22.76
2018-08-06T01:08:58.572Z,22.83
2018-08-06T01:09:58.588Z,22.74
2018-08-06T01:10:58.579Z,22.76
2018-08-06T01:11:58.654Z,22.80
2018-08-06T01:12:58.638Z,22.81
2018-08-06T01:13:58.638Z,22.80
2018-08-06T01:14:58.633Z,22.70
2018-08-06T01:15:58.655Z,22.78
2018-08-06T01:16:58.716Z,22.76
2018-08-06T01:17:58.682Z,22.70
2018-08-06T01:18:58.755Z,22.68
2018-08-06T01:19:58.750Z,22.59
2018-08-06T01:20:58.733Z,22.74
2018-08-06T01:21:58.760Z,22.67
2018-08-06T01:22:58.778Z,22.67
2018-08-06T01:23:58.870Z,22.65
2018-08-06T01:24:58.779Z,22.61
2018-08-06T01:25:58.783Z,22.61
2018-08-06T01:26:58.804Z,22.58
2018-08-06T01:27:58.814Z,22.61
2018-08-06T01:28:58.888Z,22.62
2018-08-06T01:29:58.862Z,22.49
2018-08-06T01:30:58.879Z,22.55
2018-08-06T01:31:58.891Z,22.55
2018-08-06T01:32:58.906Z,22.53
2018-08-06T01:33:58.928Z,22.49
2018-08-06T01:34:58.921Z,22.51
2018-08-06T01:35:58.888Z,22.51
2018-08-06T01:36:58.953Z,22.47
2018-08-06T01:37:58.948Z,22.49
2018-08-06T01:38:58.960Z,22.38
2018-08-06T01:39:58.965Z,22.43
2018-08-06T01:40:58.966Z,22.49
2018-08-06T01:41:59.023Z,22.38
2018-08-06T01:42:58.994Z,22.36
2018-08-06T01:43:59.029Z,22.38
2018-08-06T01:44:59.021Z,22.36
2018-08-06T01:45:59.056Z,22.30
2018-08-06T01:46:59.107Z,22.33
2018-08-06T01:47:59.062Z,22.30
2018-08-06T01:48:59.068Z,22.25
2018-08-06T01:49:59.084Z,22.26
2018-08-06T01:50:59.103Z,22.26
2018-08-06T01:51:59.283Z,22.30
2018-08-06T01:52:59.114Z,22.31
2018-08-06T01:53:59.141Z,22.30
2018-08-06T01:54:59.171Z,22.31
2018-08-06T01:55:59.144Z,22.33
2018-08-06T01:56:59.184Z,22.25
2018-08-06T01:57:59.181Z,22.25
2018-08-06T01:58:59.195Z,22.28
2018-08-06T01:59:59.192Z,22.26
2018-08-06T02:00:59.238Z,22.31
2018-08-06T02:01:59.278Z,22.28
2018-08-06T02:02:59.254Z,22.25
2018-08-06T02:03:59.270Z,22.31
2018-08-06T02:04:59.302Z,22.31
2018-08-06T02:05:59.300Z,22.26
2018-08-06T02:06:59.300Z,22.21
2018-08-06T02:07:59.281Z,22.23
2018-08-06T02:08:59.317Z,22.23
2018-08-06T02:09:59.385Z,22.21
2018-08-06T02:10:59.385Z,22.25
2018-08-06T02:11:59.339Z,22.30
2018-08-06T02:12:59.417Z,22.25
2018-08-06T02:13:59.377Z,22.25
2018-08-06T02:14:59.359Z,22.19
2018-08-06T02:15:59.402Z,22.19
2018-08-06T02:16:59.465Z,22.23
2018-08-06T02:17:59.429Z,22.23
2018-08-06T02:18:59.442Z,22.19
2018-08-06T02:19:59.459Z,22.22
2018-08-06T02:20:59.449Z,22.26
2018-08-06T02:21:59.501Z,22.22
2018-08-06T02:22:59.462Z,22.31
2018-08-06T02:23:59.504Z,22.18
2018-08-06T02:24:59.519Z,22.15
2018-08-06T02:25:59.596Z,22.16
2018-08-06T02:26:59.607Z,22.15
2018-08-06T02:27:59.548Z,22.10
2018-08-06T02:28:59.552Z,22.26
2018-08-06T02:29:59.573Z,22.21
2018-08-06T02:30:59.624Z,22.21
2018-08-06T02:31:59.631Z,22.28
2018-08-06T02:32:59.628Z,22.14
2018-08-06T02:33:59.628Z,22.28
2018-08-06T02:34:59.658Z,22.19
2018-08-06T02:35:59.691Z,22.08
2018-08-06T02:36:59.668Z,22.12
2018-08-06T02:37:59.673Z,22.21
2018-08-06T02:38:59.723Z,22.21
2018-08-06T02:39:59.699Z,22.18
2018-08-06T02:40:59.953Z,22.14
2018-08-06T02:41:59.718Z,22.19
2018-08-06T02:42:59.756Z,22.16
2018-08-06T02:43:59.766Z,22.16
2018-08-06T02:44:59.744Z,22.21
2018-08-06T02:45:59.764Z,22.19
2018-08-06T02:46:59.807Z,22.07
2018-08-06T02:47:59.797Z,22.14
2018-08-06T02:48:59.811Z,22.16
2018-08-06T02:49:59.808Z,22.14
2018-08-06T02:50:59.834Z,22.21
2018-08-06T02:51:59.858Z,22.10
2018-08-06T02:52:59.838Z,22.01
2018-08-06T02:53:59.902Z,21.89
2018-08-06T02:54:59.865Z,21.91
2018-08-06T02:55:59.903Z,21.97
2018-08-06T02:56:59.906Z,21.83
2018-08-06T02:57:59.916Z,21.89
2018-08-06T02:58:59.957Z,21.96
2018-08-06T03:00:00.002Z,21.97
2018-08-06T03:00:59.957Z,21.92
2018-08-06T03:01:59.960Z,21.94
2018-08-06T03:02:59.987Z,21.91
2018-08-06T03:04:00.198Z,21.89
2018-08-06T03:05:00.043Z,21.92
2018-08-06T03:06:00.000Z,21.91
2018-08-06T03:07:00.017Z,21.94
2018-08-06T03:08:00.029Z,21.92
2018-08-06T03:09:00.015Z,21.91
2018-08-06T03:10:00.093Z,21.83
2018-08-06T03:11:00.054Z,21.92
2018-08-06T03:12:00.108Z,21.94
2018-08-06T03:13:00.082Z,21.83
2018-08-06T03:14:00.139Z,21.88
2018-08-06T03:15:00.140Z,21.80
2018-08-06T03:16:00.125Z,21.77
2018-08-06T03:17:00.211Z,21.78
2018-08-06T03:18:00.127Z,21.78
2018-08-06T03:19:00.169Z,21.81
2018-08-06T03:20:00.259Z,21.78
2018-08-06T03:21:00.174Z,21.84
2018-08-06T03:22:00.215Z,21.80
2018-08-06T03:23:00.239Z,21.75
2018-08-06T03:24:03.688Z,21.81
2018-08-06T03:25:00.217Z,21.80
2018-08-06T03:26:00.273Z,21.88
2018-08-06T03:27:00.306Z,21.92
2018-08-06T03:28:00.255Z,21.78
2018-08-06T03:29:00.278Z,21.88
2018-08-06T03:30:00.284Z,21.91
2018-08-06T03:31:00.365Z,21.84
2018-08-06T03:32:00.331Z,21.81
2018-08-06T03:33:00.335Z,21.89
2018-08-06T03:34:00.340Z,21.83
2018-08-06T03:35:00.424Z,21.81
2018-08-06T03:36:00.361Z,21.84
2018-08-06T03:37:00.420Z,21.83
2018-08-06T03:38:00.420Z,21.89
2018-08-06T03:39:00.418Z,21.85
2018-08-06T03:40:00.408Z,21.78
2018-08-06T03:41:00.434Z,21.85
2018-08-06T03:42:00.447Z,21.85
2018-08-06T03:43:00.464Z,21.78
2018-08-06T03:44:00.446Z,21.84
2018-08-06T03:45:00.475Z,21.78
2018-08-06T03:46:00.470Z,21.83
2018-08-06T03:47:00.503Z,21.78
2018-08-06T03:48:00.498Z,21.88
2018-08-06T03:49:00.535Z,21.91
2018-08-06T03:50:00.546Z,21.94
2018-08-06T03:51:00.536Z,21.78
2018-08-06T03:52:00.593Z,21.85
2018-08-06T03:53:00.538Z,21.81
2018-08-06T03:54:00.587Z,21.81
2018-08-06T03:55:00.589Z,21.80
2018-08-06T03:56:00.643Z,21.89
2018-08-06T03:57:00.651Z,21.78
2018-08-06T03:58:00.607Z,21.78
2018-08-06T03:59:00.611Z,21.83
2018-08-06T04:00:00.665Z,21.85
2018-08-06T04:01:00.650Z,21.74
2018-08-06T04:02:00.693Z,21.84
2018-08-06T04:03:00.704Z,21.88
2018-08-06T04:04:00.699Z,21.83
2018-08-06T04:05:00.681Z,21.89
2018-08-06T04:06:00.700Z,21.97
2018-08-06T04:07:00.769Z,22.01
2018-08-06T04:08:00.787Z,21.99
2018-08-06T04:09:00.748Z,21.97
2018-08-06T04:10:00.796Z,22.01
2018-08-06T04:11:00.774Z,22.06
2018-08-06T04:12:00.818Z,22.06
2018-08-06T04:13:00.828Z,22.04
2018-08-06T04:14:00.860Z,22.10
2018-08-06T04:15:00.810Z,22.08
2018-08-06T04:16:00.826Z,22.07
2018-08-06T04:17:00.864Z,22.12
2018-08-06T04:18:00.891Z,22.16
2018-08-06T04:19:00.919Z,22.16
2018-08-06T04:20:00.886Z,22.21
2018-08-06T04:21:00.906Z,22.16
2018-08-06T04:22:00.923Z,22.22
2018-08-06T04:23:00.932Z,22.19
2018-08-06T04:24:00.935Z,22.18
2018-08-06T04:25:00.964Z,22.23
2018-08-06T04:26:00.932Z,22.19
2018-08-06T04:27:00.959Z,22.26
2018-08-06T04:28:01.033Z,22.31
2018-08-06T04:29:01.017Z,22.34
2018-08-06T04:30:01.029Z,22.37
2018-08-06T04:31:01.087Z,22.46
2018-08-06T04:32:01.299Z,22.52
2018-08-06T04:33:01.107Z,22.49
2018-08-06T04:34:01.087Z,22.51
2018-08-06T04:35:01.061Z,22.58
2018-08-06T04:36:01.082Z,22.55
2018-08-06T04:37:01.239Z,22.62
2018-08-06T04:38:01.102Z,22.62
2018-08-06T04:39:01.165Z,22.63
2018-08-06T04:40:01.129Z,22.68
2018-08-06T04:41:01.182Z,22.76
2018-08-06T04:42:03.358Z,22.76
2018-08-06T04:43:01.151Z,22.76
2018-08-06T04:44:01.193Z,22.80
2018-08-06T04:45:01.201Z,22.81
2018-08-06T04:46:01.228Z,22.76
2018-08-06T04:47:01.218Z,22.81
2018-08-06T04:48:01.323Z,22.92
2018-08-06T04:49:01.237Z,22.83
2018-08-06T04:50:01.259Z,22.86
2018-08-06T04:51:01.297Z,22.84
2018-08-06T04:52:01.302Z,22.80
2018-08-06T04:53:01.332Z,22.84
2018-08-06T04:54:01.337Z,22.95
2018-08-06T04:55:01.345Z,22.95
2018-08-06T04:56:01.329Z,23.01
2018-08-06T04:57:01.411Z,23.06
2018-08-06T04:58:01.379Z,23.06
2018-08-06T04:59:01.425Z,23.17
2018-08-06T05:00:01.379Z,23.10
2018-08-06T05:01:01.385Z,23.28
2018-08-06T05:02:01.413Z,23.26
2018-08-06T05:03:01.412Z,23.28
2018-08-06T05:04:01.465Z,23.29
2018-08-06T05:05:01.498Z,23.26
2018-08-06T05:06:01.477Z,23.23
2018-08-06T05:07:01.492Z,23.40
2018-08-06T05:08:01.491Z,23.49
2018-08-06T05:09:01.479Z,23.47
2018-08-06T05:10:01.715Z,23.51
2018-08-06T05:11:01.536Z,23.56
2018-08-06T05:12:01.546Z,23.63
2018-08-06T05:13:01.533Z,23.62
2018-08-06T05:14:01.689Z,23.71
2018-08-06T05:15:01.686Z,23.74
2018-08-06T05:16:01.596Z,23.81
2018-08-06T05:17:02.300Z,23.77
2018-08-06T05:18:01.617Z,23.89
2018-08-06T05:19:01.630Z,23.92
2018-08-06T05:20:01.660Z,24.01
2018-08-06T05:21:01.662Z,24.04
2018-08-06T05:22:01.739Z,24.09
2018-08-06T05:23:01.667Z,24.13
2018-08-06T05:24:01.745Z,24.18
2018-08-06T05:25:01.711Z,24.26
2018-08-06T05:26:01.743Z,24.29
2018-08-06T05:27:01.762Z,24.38
2018-08-06T05:28:01.777Z,24.43
2018-08-06T05:29:01.767Z,24.47
2018-08-06T05:30:01.793Z,24.56
2018-08-06T05:31:01.812Z,24.62
2018-08-06T05:32:01.884Z,24.63
2018-08-06T05:33:02.539Z,24.65
2018-08-06T05:34:01.847Z,24.68
2018-08-06T05:35:01.915Z,24.78
2018-08-06T05:36:01.876Z,24.85
2018-08-06T05:37:01.908Z,24.93
2018-08-06T05:38:01.951Z,24.97
2018-08-06T05:39:02.073Z,25.00
2018-08-06T05:40:01.952Z,25.12
2018-08-06T05:41:01.922Z,25.16
2018-08-06T05:42:01.976Z,25.06
2018-08-06T05:43:01.960Z,25.12
2018-08-06T05:44:01.980Z,25.24
2018-08-06T05:45:01.963Z,25.33
2018-08-06T05:46:02.058Z,25.36
2018-08-06T05:47:02.025Z,25.44
2018-08-06T05:48:02.071Z,25.54
2018-08-06T05:49:02.052Z,25.49
2018-08-06T05:50:02.094Z,25.55
2018-08-06T05:51:02.052Z,25.46
2018-08-06T05:52:02.128Z,25.52
2018-08-06T05:53:02.144Z,25.51
2018-08-06T05:54:02.145Z,25.41
2018-08-06T05:55:02.127Z,25.49
2018-08-06T05:56:02.128Z,25.52
2018-08-06T05:57:02.149Z,25.52
2018-08-06T05:58:02.220Z,25.54
2018-08-06T05:59:02.194Z,25.48
2018-08-06T06:00:02.217Z,25.52
2018-08-06T06:01:02.329Z,25.55
2018-08-06T06:02:02.379Z,25.51
2018-08-06T06:03:02.248Z,25.54
2018-08-06T06:04:02.356Z,25.54
2018-08-06T06:05:02.293Z,25.61
2018-08-06T06:06:02.310Z,25.73
2018-08-06T06:07:02.302Z,25.73
2018-08-06T06:08:03.186Z,25.62
2018-08-06T06:09:02.346Z,25.73
2018-08-06T06:10:02.389Z,25.85
2018-08-06T06:11:02.371Z,25.86
2018-08-06T06:12:02.422Z,25.89
2018-08-06T06:13:02.810Z,25.92
2018-08-06T06:14:02.470Z,25.93
2018-08-06T06:15:02.626Z,25.76
2018-08-06T06:16:02.473Z,25.92
2018-08-06T06:17:02.450Z,25.77
2018-08-06T06:18:02.453Z,25.81
2018-08-06T06:19:02.491Z,25.85
2018-08-06T06:20:02.519Z,25.76
2018-08-06T06:21:02.564Z,25.78
2018-08-06T06:22:02.526Z,25.76
2018-08-06T06:23:02.619Z,25.74
2018-08-06T06:24:02.564Z,25.77
2018-08-06T06:25:02.611Z,25.76
2018-08-06T06:26:02.640Z,25.77
2018-08-06T06:27:02.612Z,25.76
2018-08-06T06:28:02.616Z,25.85
2018-08-06T06:29:02.618Z,25.83
2018-08-06T06:30:02.736Z,25.91
2018-08-06T06:31:02.699Z,25.95
2018-08-06T06:32:02.673Z,25.88
2018-08-06T06:33:03.881Z,25.98
2018-08-06T06:34:02.708Z,25.99
2018-08-06T06:35:02.830Z,25.99
2018-08-06T06:36:02.742Z,26.04
2018-08-06T06:37:02.767Z,26.07
2018-08-06T06:38:02.753Z,25.88
2018-08-06T06:39:02.781Z,26.03
2018-08-06T06:40:02.863Z,26.04
2018-08-06T06:41:02.836Z,26.04
2018-08-06T06:42:02.824Z,26.07
2018-08-06T06:43:02.871Z,25.99
2018-08-06T06:44:02.865Z,25.95
2018-08-06T06:45:02.898Z,26.04
2018-08-06T06:46:02.904Z,26.03
2018-08-06T06:47:02.914Z,26.10
2018-08-06T06:48:02.951Z,26.18
2018-08-06T06:49:03.042Z,26.07
2018-08-06T06:50:02.997Z,26.06
2018-08-06T06:51:03.011Z,26.01
2018-08-06T06:52:02.982Z,25.99
2018-08-06T06:53:03.008Z,26.06
2018-08-06T06:54:03.029Z,25.92
2018-08-06T06:55:03.039Z,26.01
2018-08-06T06:56:03.125Z,25.99
2018-08-06T06:57:03.094Z,25.63
2018-08-06T06:58:03.105Z,25.63
2018-08-06T06:59:03.100Z,25.77
2018-08-06T07:00:03.160Z,25.76
2018-08-06T07:01:03.143Z,25.67
2018-08-06T07:02:03.200Z,25.70
2018-08-06T07:03:03.171Z,25.63
2018-08-06T07:04:03.236Z,25.71
2018-08-06T07:05:03.182Z,25.58
2018-08-06T07:06:03.202Z,25.55
2018-08-06T07:07:03.258Z,25.55
2018-08-06T07:08:03.257Z,25.54
2018-08-06T07:09:03.237Z,25.51
2018-08-06T07:10:03.299Z,25.52
2018-08-06T07:11:03.313Z,25.52
2018-08-06T07:12:03.351Z,25.54
2018-08-06T07:13:03.313Z,25.46
2018-08-06T07:14:03.325Z,25.41
2018-08-06T07:15:03.329Z,25.43
2018-08-06T07:16:03.445Z,25.39
2018-08-06T07:17:03.443Z,25.46
2018-08-06T07:18:03.406Z,25.43
2018-08-06T07:19:03.396Z,25.48
2018-08-06T07:20:03.427Z,25.49
2018-08-06T07:21:03.483Z,25.39
2018-08-06T07:22:03.450Z,25.40
2018-08-06T07:23:03.500Z,25.36
2018-08-06T07:24:03.578Z,25.46
2018-08-06T07:25:05.098Z,25.56
2018-08-06T07:26:05.144Z,25.24
2018-08-06T07:27:03.553Z,25.15
2018-08-06T07:28:03.591Z,25.12
2018-08-06T07:29:03.543Z,25.00
2018-08-06T07:30:03.539Z,25.07
2018-08-06T07:31:03.621Z,25.24
2018-08-06T07:32:03.595Z,25.15
2018-08-06T07:33:03.661Z,25.16
2018-08-06T07:34:03.639Z,25.24
2018-08-06T07:35:03.628Z,25.14
2018-08-06T07:36:03.690Z,25.14
2018-08-06T07:37:03.645Z,25.07
2018-08-06T07:38:03.717Z,25.14
2018-08-06T07:39:03.785Z,25.06
2018-08-06T07:40:03.704Z,24.96
2018-08-06T07:41:03.718Z,25.01
2018-08-06T07:42:03.756Z,24.99
2018-08-06T07:43:03.758Z,25.06
2018-08-06T07:44:03.792Z,25.00
2018-08-06T07:45:03.816Z,24.93
2018-08-06T07:46:03.855Z,24.86
2018-08-06T07:47:03.798Z,24.81
2018-08-06T07:48:03.858Z,24.78
2018-08-06T07:49:03.878Z,24.77
2018-08-06T07:50:03.877Z,24.63
2018-08-06T07:51:03.887Z,24.69
2018-08-06T07:52:03.868Z,24.65
2018-08-06T07:53:03.906Z,24.58
2018-08-06T07:54:03.930Z,24.56
2018-08-06T07:55:03.970Z,24.63
2018-08-06T07:56:04.008Z,24.66
2018-08-06T07:57:03.976Z,24.68
2018-08-06T07:58:04.024Z,24.68
2018-08-06T07:59:03.975Z,24.63
2018-08-06T08:00:03.982Z,24.71
2018-08-06T08:01:04.010Z,24.77
2018-08-06T08:02:03.999Z,24.69
2018-08-06T08:03:04.114Z,24.69
2018-08-06T08:04:04.059Z,24.66
2018-08-06T08:05:04.053Z,24.59
2018-08-06T08:06:04.083Z,24.53
2018-08-06T08:07:04.123Z,24.59
2018-08-06T08:08:04.202Z,24.55
2018-08-06T08:09:04.136Z,24.59
2018-08-06T08:10:04.104Z,24.62
2018-08-06T08:11:04.114Z,24.63
2018-08-06T08:12:04.189Z,24.65
2018-08-06T08:13:04.181Z,24.61
2018-08-06T08:14:04.246Z,24.63
2018-08-06T08:15:04.219Z,24.71
2018-08-06T08:16:04.222Z,24.68
2018-08-06T08:17:04.268Z,24.65
2018-08-06T08:18:04.222Z,24.65
2018-08-06T08:19:04.287Z,24.58
2018-08-06T08:20:04.381Z,24.58
2018-08-06T08:21:04.277Z,24.59
2018-08-06T08:22:04.290Z,24.61
2018-08-06T08:23:04.307Z,24.55
2018-08-06T08:24:04.375Z,24.61
2018-08-06T08:25:04.377Z,24.55
2018-08-06T08:26:04.345Z,24.43
2018-08-06T08:27:04.358Z,24.63
2018-08-06T08:28:04.422Z,24.62
2018-08-06T08:29:04.386Z,24.59
2018-08-06T08:30:04.421Z,24.59
2018-08-06T08:31:04.414Z,24.62
2018-08-06T08:32:04.456Z,24.44
2018-08-06T08:33:04.472Z,24.46
2018-08-06T08:34:04.513Z,24.53
2018-08-06T08:35:04.472Z,24.62
2018-08-06T08:36:04.478Z,24.62
2018-08-06T08:37:04.513Z,24.48
2018-08-06T08:38:04.486Z,24.51
2018-08-06T08:39:04.530Z,24.46
2018-08-06T08:40:04.551Z,24.53
2018-08-06T08:41:04.629Z,24.50
2018-08-06T08:42:04.615Z,24.44
2018-08-06T08:43:04.579Z,24.47
2018-08-06T08:44:04.586Z,24.47
2018-08-06T08:45:04.606Z,24.37
2018-08-06T08:46:04.598Z,24.48
2018-08-06T08:47:04.679Z,24.44
2018-08-06T08:48:04.637Z,24.44
2018-08-06T08:49:04.648Z,24.31
2018-08-06T08:50:04.645Z,24.34
2018-08-06T08:51:04.654Z,24.28
2018-08-06T08:52:04.715Z,24.24
2018-08-06T08:53:04.719Z,24.25
2018-08-06T08:54:04.731Z,24.37
2018-08-06T08:55:04.805Z,24.32
2018-08-06T08:56:04.772Z,24.31
2018-08-06T08:57:04.746Z,24.34
2018-08-06T08:58:04.838Z,24.40
2018-08-06T08:59:04.801Z,24.41
2018-08-06T09:00:04.805Z,24.44
2018-08-06T09:01:04.841Z,24.38
2018-08-06T09:02:04.940Z,24.46
2018-08-06T09:03:04.867Z,24.43
2018-08-06T09:04:04.841Z,24.40
2018-08-06T09:05:04.871Z,24.47
2018-08-06T09:06:04.873Z,24.48
2018-08-06T09:07:04.919Z,24.48
2018-08-06T09:08:04.970Z,24.32
2018-08-06T09:09:04.970Z,24.34
2018-08-06T09:10:04.932Z,24.19
2018-08-06T09:11:04.969Z,24.29
2018-08-06T09:12:04.947Z,24.29
2018-08-06T09:13:04.986Z,24.37
2018-08-06T09:14:05.068Z,24.32
2018-08-06T09:15:05.028Z,24.28
2018-08-06T09:16:05.067Z,24.21
2018-08-06T09:17:05.012Z,24.21
2018-08-06T09:18:05.049Z,24.34
2018-08-06T09:19:05.081Z,24.31
2018-08-06T09:20:05.079Z,24.40
2018-08-06T09:21:05.109Z,24.28
2018-08-06T09:22:05.116Z,24.21
2018-08-06T09:23:05.086Z,24.29
2018-08-06T09:24:05.158Z,24.21
2018-08-06T09:25:05.137Z,24.19
2018-08-06T09:26:05.127Z,24.24
2018-08-06T09:27:05.193Z,24.25
2018-08-06T09:28:05.160Z,24.36
2018-08-06T09:29:05.206Z,24.44
2018-08-06T09:30:05.205Z,24.48
2018-08-06T09:31:05.279Z,24.47
2018-08-06T09:32:05.214Z,24.41
2018-08-06T09:33:05.280Z,24.47
2018-08-06T09:34:05.297Z,24.53
2018-08-06T09:35:05.274Z,24.46
2018-08-06T09:36:05.314Z,24.50
2018-08-06T09:37:05.360Z,24.47
2018-08-06T09:38:05.315Z,24.48
2018-08-06T09:39:05.332Z,24.48
2018-08-06T09:40:05.325Z,24.61
2018-08-06T09:41:05.342Z,24.51
2018-08-06T09:42:05.398Z,24.47
2018-08-06T09:43:05.426Z,24.50
2018-08-06T09:44:05.405Z,24.48
2018-08-06T09:45:05.380Z,24.59
2018-08-06T09:46:05.452Z,24.62
2018-08-06T09:47:05.416Z,24.59
2018-08-06T09:48:05.461Z,24.63
2018-08-06T09:49:05.508Z,24.61
2018-08-06T09:50:05.460Z,24.56
2018-08-06T09:51:05.467Z,24.55
2018-08-06T09:52:05.519Z,24.62
2018-08-06T09:53:05.527Z,24.65
2018-08-06T09:54:05.538Z,24.62
2018-08-06T09:55:05.560Z,24.58
2018-08-06T09:56:05.557Z,24.58
2018-08-06T09:57:05.604Z,24.61
2018-08-06T09:58:05.573Z,24.66
2018-08-06T09:59:05.600Z,24.59
2018-08-06T10:00:05.631Z,24.62
2018-08-06T10:01:05.645Z,24.66
2018-08-06T10:02:05.626Z,24.65
2018-08-06T10:03:05.655Z,24.77
2018-08-06T10:04:05.661Z,24.81
2018-08-06T10:05:05.694Z,24.75
2018-08-06T10:06:05.883Z,24.71
2018-08-06T10:07:05.679Z,24.79
2018-08-06T10:08:05.744Z,24.82
2018-08-06T10:09:05.741Z,24.84
2018-08-06T10:10:05.798Z,24.84
2018-08-06T10:11:05.756Z,24.85
2018-08-06T10:12:05.817Z,24.86
2018-08-06T10:13:05.832Z,24.88
2018-08-06T10:14:05.773Z,24.86
2018-08-06T10:15:05.818Z,24.94
2018-08-06T10:16:05.817Z,24.81
2018-08-06T10:17:05.852Z,24.97
2018-08-06T10:18:05.888Z,25.00
2018-08-06T10:19:06.046Z,24.86
2018-08-06T10:20:05.899Z,24.99
2018-08-06T10:21:05.899Z,25.01
2018-08-06T10:22:06.697Z,24.94
2018-08-06T10:23:05.947Z,24.93
2018-08-06T10:24:05.984Z,24.99
2018-08-06T10:25:05.964Z,25.04
2018-08-06T10:26:05.965Z,24.97
2018-08-06T10:27:05.963Z,24.97
2018-08-06T10:28:05.986Z,25.09
2018-08-06T10:29:06.014Z,25.01
2018-08-06T10:30:06.141Z,25.11
2018-08-06T10:31:06.074Z,25.11
2018-08-06T10:32:06.096Z,25.00
2018-08-06T10:33:06.062Z,25.04
2018-08-06T10:34:06.068Z,25.07
2018-08-06T10:35:06.066Z,25.06
2018-08-06T10:36:06.152Z,25.09
2018-08-06T10:37:06.128Z,25.00
2018-08-06T10:38:06.124Z,25.04
2018-08-06T10:39:06.162Z,25.09
2018-08-06T10:40:06.138Z,25.11
2018-08-06T10:41:06.160Z,25.14
2018-08-06T10:42:06.164Z,25.22
2018-08-06T10:43:06.207Z,25.15
2018-08-06T10:44:06.240Z,25.22
2018-08-06T10:45:06.239Z,25.21
2018-08-06T10:46:06.225Z,25.14
2018-08-06T10:47:06.299Z,25.16
2018-08-06T10:48:06.270Z,25.06
2018-08-06T10:49:06.321Z,25.12
2018-08-06T10:50:06.335Z,25.21
2018-08-06T10:51:06.333Z,25.18
2018-08-06T10:52:06.346Z,25.21
2018-08-06T10:53:06.328Z,25.22
2018-08-06T10:54:06.341Z,25.16
2018-08-06T10:55:06.390Z,25.18
2018-08-06T10:56:06.367Z,25.11
2018-08-06T10:57:06.415Z,25.14
2018-08-06T10:58:06.398Z,25.12
2018-08-06T10:59:06.476Z,25.15
2018-08-06T11:00:06.431Z,25.18
2018-08-06T11:01:06.450Z,25.24
2018-08-06T11:02:06.502Z,25.22
2018-08-06T11:03:06.468Z,25.25
2018-08-06T11:04:06.529Z,25.24
2018-08-06T11:05:06.508Z,25.18
2018-08-06T11:06:06.514Z,25.19
2018-08-06T11:07:06.548Z,25.22
2018-08-06T11:08:06.595Z,25.29
2018-08-06T11:09:06.596Z,25.26
2018-08-06T11:10:06.553Z,25.26
2018-08-06T11:11:06.588Z,25.31
2018-08-06T11:12:06.588Z,25.25
2018-08-06T11:13:06.641Z,25.24
2018-08-06T11:14:06.683Z,25.30
2018-08-06T11:15:06.637Z,25.34
2018-08-06T11:16:06.663Z,25.30
2018-08-06T11:17:06.744Z,25.33
2018-08-06T11:18:06.690Z,25.34
2018-08-06T11:19:06.713Z,25.33
2018-08-06T11:20:06.718Z,25.33
2018-08-06T11:21:06.735Z,25.37
2018-08-06T11:22:06.769Z,25.31
2018-08-06T11:23:06.747Z,25.36
2018-08-06T11:24:06.790Z,25.36
2018-08-06T11:25:06.785Z,25.33
2018-08-06T11:26:06.827Z,25.36
2018-08-06T11:27:06.780Z,25.37
2018-08-06T11:28:06.879Z,25.39
2018-08-06T11:29:06.830Z,25.48
2018-08-06T11:30:06.841Z,25.41
2018-08-06T11:31:06.896Z,25.36
2018-08-06T11:32:06.948Z,25.48
2018-08-06T11:33:06.934Z,25.49
2018-08-06T11:34:06.911Z,25.51
2018-08-06T11:35:06.930Z,25.36
2018-08-06T11:36:06.944Z,25.48
2018-08-06T11:37:07.020Z,25.52
2018-08-06T11:38:06.994Z,25.54
2018-08-06T11:39:06.981Z,25.46
2018-08-06T11:40:07.026Z,25.52
2018-08-06T11:41:06.991Z,25.52
2018-08-06T11:42:07.026Z,25.54
2018-08-06T11:43:07.061Z,25.55
2018-08-06T11:44:07.072Z,25.54
2018-08-06T11:45:07.091Z,25.48
2018-08-06T11:46:07.118Z,25.49
2018-08-06T11:47:07.086Z,25.49
2018-08-06T11:48:07.119Z,25.63
2018-08-06T11:49:07.124Z,25.59
2018-08-06T11:50:07.135Z,25.49
2018-08-06T11:51:07.134Z,25.49
2018-08-06T11:52:07.193Z,25.59
2018-08-06T11:53:07.217Z,25.46
2018-08-06T11:54:07.191Z,25.55
2018-08-06T11:55:07.182Z,25.55
2018-08-06T11:56:07.196Z,25.54
2018-08-06T11:57:07.232Z,25.62
2018-08-06T11:58:07.290Z,25.62
2018-08-06T11:59:07.235Z,25.58
2018-08-06T12:00:07.268Z,25.58
2018-08-06T12:01:07.308Z,25.68
2018-08-06T12:02:07.343Z,25.76
2018-08-06T12:03:07.336Z,25.67
2018-08-06T12:04:07.370Z,25.68
2018-08-06T12:05:07.337Z,25.74
2018-08-06T12:06:07.365Z,25.74
2018-08-06T12:07:07.397Z,25.80
2018-08-06T12:08:07.432Z,25.80
2018-08-06T12:09:07.411Z,25.73
2018-08-06T12:10:07.435Z,25.74
2018-08-06T12:11:07.432Z,25.74
2018-08-06T12:12:07.433Z,25.77
2018-08-06T12:13:07.522Z,25.76
2018-08-06T12:14:07.466Z,25.83
2018-08-06T12:15:07.518Z,25.80
2018-08-06T12:16:07.487Z,25.83
2018-08-06T12:17:07.520Z,25.89
2018-08-06T12:18:07.548Z,25.80
2018-08-06T12:19:07.573Z,25.89
2018-08-06T12:20:07.561Z,25.81
2018-08-06T12:21:07.565Z,25.86
2018-08-06T12:22:07.573Z,25.81
2018-08-06T12:23:07.633Z,25.92
2018-08-06T12:24:07.628Z,25.93
2018-08-06T12:25:07.663Z,25.86
2018-08-06T12:26:07.674Z,25.80
2018-08-06T12:27:07.748Z,25.91
2018-08-06T12:28:07.658Z,25.89
2018-08-06T12:29:07.653Z,25.86
2018-08-06T12:30:07.746Z,25.91
2018-08-06T12:31:07.733Z,25.85
2018-08-06T12:32:07.748Z,25.83
2018-08-06T12:33:07.732Z,25.83
2018-08-06T12:34:07.750Z,25.81
2018-08-06T12:35:07.788Z,25.96
2018-08-06T12:36:07.814Z,25.98
2018-08-06T12:37:07.863Z,25.99
2018-08-06T12:38:07.892Z,25.99
2018-08-06T12:39:07.844Z,25.92
2018-08-06T12:40:07.834Z,26.04
2018-08-06T12:41:07.840Z,25.99
2018-08-06T12:42:07.861Z,25.99
2018-08-06T12:43:07.909Z,25.99
2018-08-06T12:44:07.941Z,25.98
2018-08-06T12:45:07.939Z,26.01
2018-08-06T12:46:07.993Z,26.03
2018-08-06T12:47:07.940Z,26.07
2018-08-06T12:48:07.958Z,26.16
2018-08-06T12:49:07.976Z,26.22
2018-08-06T12:50:07.964Z,26.13
2018-08-06T12:51:07.999Z,26.22
2018-08-06T12:52:08.022Z,26.13
2018-08-06T12:53:08.055Z,26.24